createdAt,value
2018-12-08T00:00:06.090Z,99741.80
2018-12-08T00:02:44.333Z,99750.11
2018-12-08T00:05:25.580Z,99740.63
2018-12-08T00:08:06.222Z,99745.06
2018-12-08T00:10:47.068Z,99746.20
2018-12-08T00:13:28.596Z,99695.14
2018-12-08T00:16:00.186Z,99746.20
2018-12-08T00:18:34.867Z,99746.67
2018-12-08T00:21:16.001Z,99749.87
2018-12-08T00:23:50.164Z,99745.33
2018-12-08T00:26:31.512Z,99742.61
2018-12-08T00:29:06.547Z,99739.11
2018-12-08T00:31:43.853Z,99739.14
2018-12-08T00:34:15.957Z,99731.98
2018-12-08T00:36:57.007Z,99745.49
2018-12-08T00:39:39.434Z,99751.47
2018-12-08T00:42:20.090Z,99760.53
2018-12-08T00:45:01.599Z,99757.23
2018-12-08T00:47:29.869Z,99761.36
2018-12-08T00:50:11.046Z,99739.38
2018-12-08T00:52:51.846Z,99703.54
2018-12-08T00:55:33.413Z,99749.41
2018-12-08T00:58:17.996Z,99755.83
2018-12-08T01:00:46.294Z,99756.42
2018-12-08T01:03:29.377Z,99752.41
2018-12-08T01:06:10.023Z,99760.78
2018-12-08T01:08:51.531Z,99759.42
2018-12-08T01:11:19.988Z,99760.47
2018-12-08T01:14:00.825Z,99724.59
2018-12-08T01:16:42.396Z,99734.08
2018-12-08T01:19:24.886Z,99747.70
2018-12-08T01:22:06.431Z,99746.79
2018-12-08T01:24:47.957Z,99719.97
2018-12-08T01:27:29.472Z,99772.78
2018-12-08T01:30:11.005Z,99773.14
2018-12-08T01:32:39.301Z,99779.78
2018-12-08T01:35:21.930Z,99784.80
2018-12-08T01:38:04.635Z,99738.94
2018-12-08T01:40:32.910Z,99793.95
2018-12-08T01:43:15.975Z,99783.76
2018-12-08T01:45:58.476Z,99789.84
2018-12-08T01:48:52.174Z,99785.26
2018-12-08T01:51:33.601Z,99740.53
2018-12-08T01:54:17.030Z,99784.56
2018-12-08T01:56:45.351Z,99775.95
2018-12-08T01:59:33.305Z,99776.55
2018-12-08T02:02:07.772Z,99745.92
2018-12-08T02:04:50.817Z,99778.83
2018-12-08T02:07:31.533Z,99779.06
2018-12-08T02:12:43.480Z,99737.55
2018-12-08T02:15:24.212Z,99723.37
2018-12-08T02:18:05.703Z,99717.64
2018-12-08T02:20:47.218Z,99774.83
2018-12-08T02:23:15.489Z,99773.36
2018-12-08T02:25:58.180Z,99724.43
2018-12-08T02:28:38.820Z,99757.44
2018-12-08T02:31:19.432Z,99761.91
2018-12-08T02:34:07.642Z,99769.46
2018-12-08T02:36:35.888Z,99763.27
2018-12-08T02:39:18.983Z,99763.27
2018-12-08T02:42:01.688Z,99714.44
2018-12-08T02:44:44.237Z,99744.73
2018-12-08T02:47:26.795Z,99750.32
2018-12-08T02:50:09.460Z,99761.66
2018-12-08T02:52:51.014Z,99724.05
2018-12-08T02:55:32.542Z,99758.55
2018-12-08T02:58:03.713Z,99757.98
2018-12-08T03:00:44.812Z,99758.55
2018-12-08T03:03:27.401Z,99712.91
2018-12-08T03:06:10.039Z,99747.34
2018-12-08T03:08:50.741Z,99707.35
2018-12-08T03:11:24.814Z,99743.36
2018-12-08T03:14:07.839Z,99739.35
2018-12-08T03:16:36.263Z,99746.12
2018-12-08T03:19:24.787Z,99731.25
2018-12-08T03:22:12.418Z,99727.82
2018-12-08T03:24:55.130Z,99725.77
2018-12-08T03:27:47.246Z,99720.97
2018-12-08T03:30:15.493Z,99714.46
2018-12-08T03:32:56.801Z,99674.81
2018-12-08T03:35:39.529Z,99709.89
2018-12-08T03:38:20.164Z,99668.55
2018-12-08T03:41:01.692Z,99671.75
2018-12-08T03:43:42.264Z,99709.30
2018-12-08T03:46:26.890Z,99700.38
2018-12-08T03:49:09.414Z,99662.15
2018-12-08T03:51:50.322Z,99698.55
2018-12-08T03:54:18.603Z,99694.88
2018-12-08T03:56:59.439Z,99691.22
2018-12-08T03:59:41.072Z,99694.65
2018-12-08T04:02:23.406Z,99699.45
2018-12-08T04:05:04.203Z,99693.53
2018-12-08T04:07:45.742Z,99684.59
2018-12-08T04:10:27.330Z,99637.33
2018-12-08T04:13:08.888Z,99635.50
2018-12-08T04:15:51.202Z,99690.08
2018-12-08T04:18:33.751Z,99678.39
2018-12-08T04:21:16.288Z,99681.00
2018-12-08T04:23:57.920Z,99639.49
2018-12-08T04:26:40.361Z,99635.37
2018-12-08T04:29:21.181Z,99676.77
2018-12-08T04:32:06.650Z,99656.83
2018-12-08T04:34:48.945Z,99656.39
2018-12-08T04:37:31.491Z,99673.34
2018-12-08T04:40:24.972Z,99621.94
2018-12-08T04:43:07.401Z,99653.29
2018-12-08T04:45:48.166Z,99657.86
2018-12-08T04:48:29.690Z,99652.00
2018-12-08T04:51:12.046Z,99652.23
2018-12-08T04:53:56.649Z,99635.95
2018-12-08T04:56:38.227Z,99656.58
2018-12-08T04:59:18.881Z,99650.30
2018-12-08T05:01:47.133Z,99660.37
2018-12-08T05:04:29.941Z,99674.91
2018-12-08T05:07:21.990Z,99671.00
2018-12-08T05:10:02.909Z,99666.88
2018-12-08T05:12:44.497Z,99622.95
2018-12-08T05:15:26.048Z,99649.02
2018-12-08T05:18:07.606Z,99664.84
2018-12-08T05:20:49.940Z,99665.63
2018-12-08T05:23:30.557Z,99666.44
2018-12-08T05:25:58.834Z,99663.09
2018-12-08T05:28:27.093Z,99653.70
2018-12-08T05:30:55.363Z,99661.39
2018-12-08T05:33:45.311Z,99621.23
2018-12-08T05:36:27.117Z,99647.86
2018-12-08T05:39:07.732Z,99653.59
2018-12-08T05:41:49.246Z,99608.72
2018-12-08T05:44:30.769Z,99642.22
2018-12-08T05:46:59.061Z,99636.95
2018-12-08T05:49:41.776Z,99608.28
2018-12-08T05:52:22.422Z,99632.26
2018-12-08T05:54:50.679Z,99636.38
2018-12-08T05:57:42.165Z,99652.89
2018-12-08T06:00:24.126Z,99651.52
2018-12-08T06:02:52.413Z,99651.52
2018-12-08T06:08:20.289Z,99645.31
2018-12-08T06:10:48.614Z,99647.47
2018-12-08T06:13:42.516Z,99648.52
2018-12-08T06:16:10.840Z,99641.41
2018-12-08T06:18:53.384Z,99634.98
2018-12-08T06:21:35.756Z,99625.58
2018-12-08T06:24:22.993Z,99649.19
2018-12-08T06:27:03.997Z,99647.81
2018-12-08T06:29:32.314Z,99649.97
2018-12-08T06:32:23.571Z,99660.64
2018-12-08T06:35:15.048Z,99642.17
2018-12-08T06:37:43.299Z,99642.98
2018-12-08T06:40:11.579Z,99632.54
2018-12-08T06:43:00.874Z,99603.66
2018-12-08T06:45:42.712Z,99637.03
2018-12-08T06:48:23.317Z,99628.19
2018-12-08T06:51:05.698Z,99642.31
2018-12-08T06:53:46.358Z,99591.98
2018-12-08T06:59:48.094Z,99635.66
2018-12-08T07:02:40.137Z,99605.17
2018-12-08T07:05:14.510Z,99616.52
2018-12-08T07:10:49.282Z,99616.52
2018-12-08T07:13:31.418Z,99609.86
2018-12-08T07:16:19.766Z,99606.55
2018-12-08T07:19:09.315Z,99613.66
2018-12-08T07:21:51.198Z,99608.38
2018-12-08T07:24:44.767Z,99604.25
2018-12-08T07:27:36.930Z,99598.30
2018-12-08T07:30:27.685Z,99590.60
2018-12-08T07:33:10.029Z,99597.84
2018-12-08T07:35:50.635Z,99590.97
2018-12-08T07:38:32.185Z,99527.65
2018-12-08T07:41:00.524Z,99591.08
2018-12-08T07:46:52.076Z,99586.66
2018-12-08T07:49:45.836Z,99596.05
2018-12-08T07:52:27.462Z,99609.22
2018-12-08T07:55:09.014Z,99597.54
2018-12-08T07:57:50.550Z,99596.31
2018-12-08T08:00:32.089Z,99555.84
2018-12-08T08:03:00.384Z,99585.75
2018-12-08T08:05:54.062Z,99587.83
2018-12-08T08:08:36.503Z,99572.84
2018-12-08T08:11:17.135Z,99577.08
2018-12-08T08:13:49.250Z,99570.34
2018-12-08T08:16:30.271Z,99533.89
2018-12-08T08:19:22.389Z,99579.86
2018-12-08T08:21:50.696Z,99570.38
2018-12-08T08:24:32.943Z,99577.81
2018-12-08T08:27:14.540Z,99570.94
2018-12-08T08:29:56.010Z,99564.28
2018-12-08T08:32:24.290Z,99569.56
2018-12-08T08:35:05.303Z,99571.16
2018-12-08T08:37:33.603Z,99568.64
2018-12-08T08:40:15.124Z,99571.84
2018-12-08T08:42:43.493Z,99569.31
2018-12-08T08:45:26.166Z,99564.03
2018-12-08T08:48:08.820Z,99560.59
2018-12-08T08:50:51.471Z,99559.44
2018-12-08T08:53:19.780Z,99569.73
2018-12-08T08:56:07.387Z,99522.03
2018-12-08T08:58:35.719Z,99564.01
2018-12-08T09:01:23.595Z,99543.24
2018-12-08T09:04:06.307Z,99549.78
2018-12-08T09:06:34.568Z,99562.23
2018-12-08T09:09:16.508Z,99559.15
2018-12-08T09:11:57.153Z,99516.40
2018-12-08T09:14:37.874Z,99556.92
2018-12-08T09:17:20.370Z,99564.47
2018-12-08T09:19:48.727Z,99551.98
2018-12-08T09:22:17.070Z,99554.02
2018-12-08T09:24:59.257Z,99550.91
2018-12-08T09:27:33.253Z,99559.27
2018-12-08T09:30:01.551Z,99553.28
2018-12-08T09:32:29.829Z,99542.61
2018-12-08T09:38:11.037Z,99490.13
2018-12-08T09:40:39.327Z,99539.39
2018-12-08T09:49:07.533Z,99542.09
2018-12-08T09:51:35.971Z,99560.20
2018-12-08T09:54:04.423Z,99554.10
2018-12-08T09:56:32.736Z,99549.85
2018-12-08T09:59:01.053Z,99551.45
2018-12-08T10:01:29.412Z,99559.71
2018-12-08T10:03:57.745Z,99557.74
2018-12-08T10:06:26.074Z,99554.43
2018-12-08T10:09:05.619Z,99547.77
2018-12-08T10:11:35.235Z,99545.02
2018-12-08T10:17:12.043Z,99534.45
2018-12-08T10:20:08.163Z,99536.04
2018-12-08T10:22:42.329Z,99534.66
2018-12-08T10:25:20.882Z,99537.64
2018-12-08T10:27:49.200Z,99532.70
2018-12-08T10:30:25.091Z,99524.31
2018-12-08T10:32:56.811Z,99520.97
2018-12-08T10:35:48.490Z,99524.75
2018-12-08T10:38:16.849Z,99522.22
2018-12-08T10:40:51.796Z,99522.44
2018-12-08T10:43:33.926Z,99529.77
2018-12-08T10:46:15.498Z,99533.19
2018-12-08T10:48:54.160Z,99535.22
2018-12-08T10:51:36.869Z,99533.50
2018-12-08T10:54:18.197Z,99527.84
2018-12-08T10:56:53.107Z,99537.14
2018-12-08T10:59:24.657Z,99524.97
2018-12-08T11:02:00.752Z,99477.02
2018-12-08T11:04:42.270Z,99529.16
2018-12-08T11:07:13.839Z,99525.25
2018-12-08T11:09:45.241Z,99527.29
2018-12-08T11:12:26.830Z,99512.02
2018-12-08T11:15:00.848Z,99529.20
2018-12-08T11:17:36.526Z,99526.29
2018-12-08T11:20:09.160Z,99527.55
2018-12-08T11:22:43.579Z,99524.88
2018-12-08T11:25:18.478Z,99535.41
2018-12-08T11:27:53.421Z,99533.74
2018-12-08T11:36:31.675Z,99479.52
2018-12-08T11:39:05.262Z,99532.92
2018-12-08T11:41:35.234Z,99534.39
2018-12-08T11:44:11.280Z,99524.80
2018-12-08T11:49:48.392Z,99535.98
2018-12-08T11:52:22.981Z,99535.25
2018-12-08T11:54:57.521Z,99526.27
2018-12-08T11:57:53.871Z,99539.32
2018-12-08T12:00:25.212Z,99540.57
2018-12-08T12:03:23.252Z,99536.27
2018-12-08T12:05:54.257Z,99537.74
2018-12-08T12:08:41.851Z,99551.02
2018-12-08T12:11:13.734Z,99531.37
2018-12-08T12:14:09.657Z,99536.37
2018-12-08T12:16:50.502Z,99530.13
2018-12-08T12:19:18.855Z,99541.81
2018-12-08T12:21:53.160Z,99535.35
2018-12-08T12:24:25.207Z,99535.78
2018-12-08T12:27:00.037Z,99531.64
2018-12-08T12:29:49.977Z,99530.05
2018-12-08T12:32:24.412Z,99544.63
2018-12-08T12:38:06.422Z,99517.86
2018-12-08T12:40:42.103Z,99519.45
2018-12-08T12:43:16.303Z,99545.66
2018-12-08T12:48:53.643Z,99540.14
2018-12-08T12:51:24.918Z,99532.08
2018-12-08T12:53:59.750Z,99529.54
2018-12-08T12:56:31.035Z,99524.59
2018-12-08T12:59:03.157Z,99527.13
2018-12-08T13:01:33.119Z,99523.80
2018-12-08T13:04:05.427Z,99522.64
2018-12-08T13:06:39.943Z,99530.92
2018-12-08T13:09:11.262Z,99538.16
2018-12-08T13:11:45.845Z,99541.43
2018-12-08T13:17:20.555Z,99525.69
2018-12-08T13:19:52.568Z,99533.91
2018-12-08T13:22:27.444Z,99532.73
2018-12-08T13:25:18.288Z,99534.33
2018-12-08T13:27:52.283Z,99525.97
2018-12-08T13:30:27.040Z,99524.16
2018-12-08T13:33:07.832Z,99506.96
2018-12-08T13:35:52.371Z,99516.39
2018-12-08T13:38:24.189Z,99517.77
2018-12-08T13:41:02.436Z,99504.37
2018-12-08T13:43:40.968Z,99524.66
2018-12-08T13:46:12.225Z,99521.91
2018-12-08T13:48:47.317Z,99515.23
2018-12-08T13:51:19.312Z,99508.13
2018-12-08T13:53:49.285Z,99511.09
2018-12-08T13:56:20.557Z,99499.85
2018-12-08T13:58:54.994Z,99502.27
2018-12-08T14:01:26.844Z,99498.69
2018-12-08T14:03:58.067Z,99497.53
2018-12-08T14:06:28.199Z,99493.83
2018-12-08T14:09:00.195Z,99496.02
2018-12-08T14:11:31.734Z,99493.10
2018-12-08T14:14:03.094Z,99491.59
2018-12-08T14:19:37.489Z,99485.78
2018-12-08T14:22:12.906Z,99486.81
2018-12-08T14:29:54.657Z,99485.19
2018-12-08T14:32:28.652Z,99496.09
2018-12-08T14:34:59.950Z,99480.31
2018-12-08T14:37:34.856Z,99482.73
2018-12-08T14:40:07.490Z,99473.72
2018-12-08T14:42:38.907Z,99479.23
2018-12-08T14:45:10.530Z,99487.00
2018-12-08T14:47:44.704Z,99478.94
2018-12-08T14:50:14.678Z,99474.41
2018-12-08T14:52:46.579Z,99473.25
2018-12-08T14:55:17.221Z,99475.87
2018-12-08T15:03:55.966Z,99481.52
2018-12-08T15:06:30.711Z,99476.22
2018-12-08T15:09:00.835Z,99475.27
2018-12-08T15:11:32.725Z,99460.31
2018-12-08T15:14:07.043Z,99468.80
2018-12-08T15:16:35.399Z,99462.93
2018-12-08T15:19:06.865Z,99472.20
2018-12-08T15:21:38.870Z,99473.02
2018-12-08T15:24:11.030Z,99478.16
2018-12-08T15:26:45.769Z,99482.72
2018-12-08T15:29:20.889Z,99478.02
2018-12-08T15:31:52.127Z,99467.55
2018-12-08T15:34:24.179Z,99462.24
2018-12-08T15:36:56.429Z,99458.91
2018-12-08T15:39:26.440Z,99456.16
2018-12-08T15:42:00.445Z,99454.39
2018-12-08T15:44:32.261Z,99455.98
2018-12-08T15:47:21.968Z,99447.13
2018-12-08T15:49:53.934Z,99447.13
2018-12-08T15:52:25.783Z,99450.68
2018-12-08T15:55:00.303Z,99457.79
2018-12-08T15:57:39.205Z,99440.06
2018-12-08T16:00:20.751Z,99437.52
2018-12-08T16:02:54.874Z,99448.80
2018-12-08T16:05:23.237Z,99435.43
2018-12-08T16:07:53.449Z,99443.92
2018-12-08T16:10:21.898Z,99439.62
2018-12-08T16:12:50.236Z,99432.36
2018-12-08T16:15:18.689Z,99435.55
2018-12-08T16:17:47.133Z,99425.29
2018-12-08T16:20:15.651Z,99423.77
2018-12-08T16:22:43.972Z,99411.55
2018-12-08T16:25:22.116Z,99407.84
2018-12-08T16:27:50.457Z,99397.79
2018-12-08T16:30:18.812Z,99394.28
2018-12-08T16:32:47.098Z,99387.38
2018-12-08T16:35:15.518Z,99384.27
2018-12-08T16:37:43.841Z,99383.67
2018-12-08T16:40:12.290Z,99381.13
2018-12-08T16:42:40.621Z,99379.38
2018-12-08T16:45:09.157Z,99371.52
2018-12-08T16:47:37.452Z,99363.45
2018-12-08T16:50:06.646Z,99357.92
2018-12-08T16:52:35.008Z,99346.52
2018-12-08T16:55:24.963Z,99348.69
2018-12-08T16:57:53.309Z,99340.83
2018-12-08T17:00:21.709Z,99334.13
2018-12-08T17:02:49.985Z,99332.97
2018-12-08T17:05:18.405Z,99334.77
2018-12-08T17:07:46.730Z,99327.29
2018-12-08T17:10:15.204Z,99328.28
2018-12-08T17:12:43.548Z,99331.25
2018-12-08T17:15:12.014Z,99325.94
2018-12-08T17:17:40.450Z,99319.04
2018-12-08T17:20:09.577Z,99321.23
2018-12-08T17:22:37.984Z,99317.87
2018-12-08T17:25:06.388Z,99318.68
2018-12-08T17:27:34.708Z,99298.11
2018-12-08T17:30:03.105Z,99286.86
2018-12-08T17:32:31.559Z,99275.39
2018-12-08T17:34:59.880Z,99277.31
2018-12-08T17:37:28.199Z,99264.05
2018-12-08T17:43:06.247Z,99263.20
2018-12-08T17:45:34.590Z,99251.14
2018-12-08T17:48:22.632Z,99245.80
2018-12-08T17:50:50.987Z,99234.55
2018-12-08T17:53:19.336Z,99230.77
2018-12-08T17:55:53.995Z,99228.61
2018-12-08T17:58:22.323Z,99231.16
2018-12-08T18:03:53.957Z,99201.00
2018-12-08T18:06:22.457Z,99200.80
2018-12-08T18:08:50.804Z,99186.99
2018-12-08T18:11:19.247Z,99189.75
2018-12-08T18:13:47.597Z,99167.45
2018-12-08T18:16:16.005Z,99175.73
2018-12-08T18:18:44.337Z,99157.80
2018-12-08T18:21:12.819Z,99159.95
2018-12-08T18:23:41.199Z,99150.90
2018-12-08T18:26:12.736Z,99143.78
2018-12-08T18:28:42.545Z,99141.03
2018-12-08T18:34:14.237Z,99128.19
2018-12-08T18:36:52.959Z,99123.03
2018-12-08T18:39:49.170Z,99119.28
2018-12-08T18:42:17.470Z,99114.73
2018-12-08T18:44:45.833Z,99120.79
2018-12-08T18:47:20.769Z,99092.78
2018-12-08T18:50:17.095Z,99090.73
2018-12-08T18:55:47.880Z,99068.77
2018-12-08T18:58:19.302Z,99062.78
2018-12-08T19:00:57.947Z,99050.70
2018-12-08T19:03:35.962Z,99049.25
2018-12-08T19:06:07.364Z,99034.02
2018-12-08T19:08:37.099Z,99025.52
2018-12-08T19:11:20.034Z,99029.78
2018-12-08T19:13:48.377Z,99014.73
2018-12-08T19:16:22.866Z,98995.98
2018-12-08T19:19:05.920Z,98996.08
2018-12-08T19:24:37.657Z,98978.67
2018-12-08T19:27:05.991Z,98977.44
2018-12-08T19:29:34.338Z,98978.20
2018-12-08T19:32:15.813Z,98977.21
2018-12-08T19:35:03.965Z,98963.58
2018-12-08T19:37:35.809Z,98947.02
2018-12-08T19:40:23.536Z,98945.79
2018-12-08T19:42:57.804Z,98937.70
2018-12-08T19:48:43.194Z,98898.65
2018-12-08T19:51:11.559Z,98892.72
2018-12-08T19:54:05.211Z,98865.50
2018-12-08T19:56:44.058Z,98863.13
2018-12-08T19:59:25.417Z,98860.17
2018-12-08T20:01:55.490Z,98850.53
2018-12-08T20:04:27.218Z,98829.66
2018-12-08T20:06:58.926Z,98845.02
2018-12-08T20:09:30.530Z,98836.75
2018-12-08T20:12:07.329Z,98811.75
2018-12-08T20:15:01.813Z,98809.20
2018-12-08T20:23:50.141Z,98810.99
2018-12-08T20:26:37.800Z,98798.80
2018-12-08T20:29:09.150Z,98781.46
2018-12-08T20:31:43.882Z,98778.13
2018-12-08T20:34:17.912Z,98776.55
2018-12-08T20:39:15.915Z,98734.05
2018-12-08T20:41:50.508Z,98741.38
2018-12-08T20:47:25.481Z,98741.60
2018-12-08T20:49:55.632Z,98730.22
2018-12-08T20:55:43.150Z,98727.31
2018-12-08T20:58:14.425Z,98707.86
2018-12-08T21:00:44.442Z,98700.57
2018-12-08T21:03:29.065Z,98696.84
2018-12-08T21:06:03.554Z,98691.74
2018-12-08T21:08:45.056Z,98692.15
2018-12-08T21:14:18.609Z,98678.62
2018-12-08T21:20:05.949Z,98679.27
2018-12-08T21:25:44.339Z,98630.91
2018-12-08T21:28:15.620Z,98669.14
2018-12-08T21:33:47.309Z,98650.31
2018-12-08T21:36:18.811Z,98652.70
2018-12-08T21:41:17.266Z,98651.96
2018-12-08T21:43:51.899Z,98646.06
2018-12-08T21:49:29.340Z,98661.50
2018-12-08T21:52:03.812Z,98653.63
2018-12-08T21:54:38.406Z,98653.25
2018-12-08T21:57:10.574Z,98652.27
2018-12-08T21:59:42.299Z,98653.25
2018-12-08T22:02:16.395Z,98646.55
2018-12-08T22:04:51.082Z,98642.23
2018-12-08T22:07:19.388Z,98644.59
2018-12-08T22:12:56.839Z,98650.34
2018-12-08T22:15:28.081Z,98647.78
2018-12-08T22:18:02.107Z,98647.78
2018-12-08T22:20:36.974Z,98638.12
2018-12-08T22:26:05.313Z,98630.03
2018-12-08T22:28:33.660Z,98627.65
2018-12-08T22:31:29.973Z,98617.02
2018-12-08T22:34:05.286Z,98626.48
2018-12-08T22:36:43.920Z,98630.41
2018-12-08T22:42:00.946Z,98623.31
2018-12-08T22:44:31.126Z,98618.19
2018-12-08T22:47:00.876Z,98619.97
2018-12-08T22:49:32.571Z,98624.13
2018-12-08T22:58:07.170Z,98622.19
2018-12-08T23:00:45.043Z,98614.91
2018-12-08T23:06:23.187Z,98609.80
2018-12-08T23:08:53.164Z,98603.30
2018-12-08T23:11:24.858Z,98574.05
2018-12-08T23:20:03.537Z,98586.76
2018-12-08T23:22:37.922Z,98533.23
2018-12-08T23:25:19.519Z,98566.44
2018-12-08T23:28:17.923Z,98580.65
2018-12-08T23:30:46.262Z,98567.03
2018-12-08T23:33:31.330Z,98565.85
2018-12-08T23:36:12.250Z,98570.19
2018-12-08T23:38:40.566Z,98566.24
2018-12-08T23:41:18.731Z,98588.34
2018-12-08T23:43:53.694Z,98608.47
2018-12-08T23:46:25.419Z,98593.05
2018-12-08T23:49:00.076Z,98618.28
2018-12-08T23:51:34.108Z,98603.44
2018-12-08T23:54:05.447Z,98611.88
2018-12-08T23:56:47.010Z,98617.70
